sensor_id;sensor_type;location;lat;lon;timestamp;temperature;humidity
3816;DHT22;1923;48.154;11.536;2022-10-16T13:45:36;22.80;92.20
3816;DHT22;1923;48.154;11.536;2022-10-16T13:48:06;24.70;89.30
3816;DHT22;1923;48.154;11.536;2022-10-16T13:50:38;24.60;87.90
3816;DHT22;1923;48.154;11.536;2022-10-16T13:53:09;24.50;87.00
3816;DHT22;1923;48.154;11.536;2022-10-16T13:55:40;24.50;86.60
3816;DHT22;1923;48.154;11.536;2022-10-16T13:58:12;24.40;87.90
3816;DHT22;1923;48.154;11.536;2022-10-16T14:00:53;24.30;88.40
3816;DHT22;1923;48.154;11.536;2022-10-16T14:03:22;24.20;88.50
3816;DHT22;1923;48.154;11.536;2022-10-16T14:05:52;24.20;89.20
3816;DHT22;1923;48.154;11.536;2022-10-16T14:08:22;24.10;89.50
3816;DHT22;1923;48.154;11.536;2022-10-16T14:10:53;24.10;89.30
3816;DHT22;1923;48.154;11.536;2022-10-16T14:13:31;24.10;86.70
3816;DHT22;1923;48.154;11.536;2022-10-16T14:16:07;24.00;88.40
3816;DHT22;1923;48.154;11.536;2022-10-16T14:18:38;24.00;87.40
3816;DHT22;1923;48.154;11.536;2022-10-16T14:21:07;24.10;87.70
3816;DHT22;1923;48.154;11.536;2022-10-16T14:23:40;24.10;87.00
3816;DHT22;1923;48.154;11.536;2022-10-16T14:26:16;24.00;86.20
3816;DHT22;1923;48.154;11.536;2022-10-16T14:28:46;24.00;86.00
3816;DHT22;1923;48.154;11.536;2022-10-16T14:31:27;24.00;85.30
3816;DHT22;1923;48.154;11.536;2022-10-16T14:33:56;24.00;87.70
3816;DHT22;1923;48.154;11.536;2022-10-16T14:36:25;23.90;88.40
3816;DHT22;1923;48.154;11.536;2022-10-16T14:38:59;24.00;87.90
3816;DHT22;1923;48.154;11.536;2022-10-16T14:41:29;23.90;88.80
3816;DHT22;1923;48.154;11.536;2022-10-16T14:44:01;23.80;89.80
3816;DHT22;1923;48.154;11.536;2022-10-16T14:46:33;23.90;88.40
3816;DHT22;1923;48.154;11.536;2022-10-16T14:49:16;23.80;88.20
3816;DHT22;1923;48.154;11.536;2022-10-16T14:51:46;23.80;87.80
3816;DHT22;1923;48.154;11.536;2022-10-16T14:54:16;23.80;87.90
3816;DHT22;1923;48.154;11.536;2022-10-16T14:56:50;23.80;86.90
3816;DHT22;1923;48.154;11.536;2022-10-16T14:59:22;23.80;90.20
3816;DHT22;1923;48.154;11.536;2022-10-16T15:01:53;23.80;88.40
3816;DHT22;1923;48.154;11.536;2022-10-16T15:04:21;23.80;88.00
3816;DHT22;1923;48.154;11.536;2022-10-16T15:06:49;23.80;87.90
3816;DHT22;1923;48.154;11.536;2022-10-16T15:09:17;23.80;90.30
3816;DHT22;1923;48.154;11.536;2022-10-16T15:11:45;23.70;90.10
3816;DHT22;1923;48.154;11.536;2022-10-16T15:14:14;23.70;90.30
3816;DHT22;1923;48.154;11.536;2022-10-16T15:16:42;23.60;90.40
3816;DHT22;1923;48.154;11.536;2022-10-16T15:19:11;23.60;90.00
3816;DHT22;1923;48.154;11.536;2022-10-16T15:21:39;23.60;90.90
3816;DHT22;1923;48.154;11.536;2022-10-16T15:24:09;23.60;90.70
3816;DHT22;1923;48.154;11.536;2022-10-16T15:26:44;23.60;92.10
3816;DHT22;1923;48.154;11.536;2022-10-16T15:29:13;23.50;91.90
3816;DHT22;1923;48.154;11.536;2022-10-16T15:31:41;23.50;92.90
3816;DHT22;1923;48.154;11.536;2022-10-16T15:34:11;23.50;93.10
3816;DHT22;1923;48.154;11.536;2022-10-16T15:36:40;23.40;93.70
3816;DHT22;1923;48.154;11.536;2022-10-16T15:39:13;23.40;94.60
3816;DHT22;1923;48.154;11.536;2022-10-16T15:41:41;23.30;94.80
3816;DHT22;1923;48.154;11.536;2022-10-16T15:44:10;23.30;95.20
3816;DHT22;1923;48.154;11.536;2022-10-16T15:46:37;23.20;95.70
3816;DHT22;1923;48.154;11.536;2022-10-16T15:49:05;23.20;95.50
3816;DHT22;1923;48.154;11.536;2022-10-16T15:51:38;23.10;95.90
3816;DHT22;1923;48.154;11.536;2022-10-16T15:54:06;23.10;96.30
3816;DHT22;1923;48.154;11.536;2022-10-16T15:56:34;23.10;96.40
3816;DHT22;1923;48.154;11.536;2022-10-16T15:59:04;23.00;96.50
3816;DHT22;1923;48.154;11.536;2022-10-16T16:01:32;22.90;97.10
3816;DHT22;1923;48.154;11.536;2022-10-16T16:04:00;22.90;97.20
3816;DHT22;1923;48.154;11.536;2022-10-16T16:06:42;22.80;97.20
3816;DHT22;1923;48.154;11.536;2022-10-16T16:09:13;22.70;97.80
3816;DHT22;1923;48.154;11.536;2022-10-16T16:11:42;22.60;98.10
3816;DHT22;1923;48.154;11.536;2022-10-16T16:14:12;22.60;98.00
3816;DHT22;1923;48.154;11.536;2022-10-16T16:16:40;22.50;98.30
3816;DHT22;1923;48.154;11.536;2022-10-16T16:19:08;22.40;98.50
3816;DHT22;1923;48.154;11.536;2022-10-16T16:21:38;22.40;99.70
3816;DHT22;1923;48.154;11.536;2022-10-16T16:24:07;22.30;99.80
3816;DHT22;1923;48.154;11.536;2022-10-16T16:26:35;22.20;99.50
3816;DHT22;1923;48.154;11.536;2022-10-16T16:29:07;22.10;99.80
3816;DHT22;1923;48.154;11.536;2022-10-16T16:31:36;22.10;99.90
3816;DHT22;1923;48.154;11.536;2022-10-16T16:34:04;22.00;99.90
3816;DHT22;1923;48.154;11.536;2022-10-16T16:36:33;22.00;99.90
3816;DHT22;1923;48.154;11.536;2022-10-16T16:39:01;21.90;99.90
3816;DHT22;1923;48.154;11.536;2022-10-16T16:41:30;21.90;99.90
3816;DHT22;1923;48.154;11.536;2022-10-16T16:44:03;21.80;99.90
3816;DHT22;1923;48.154;11.536;2022-10-16T16:46:32;21.70;99.90
3816;DHT22;1923;48.154;11.536;2022-10-16T16:49:00;21.70;99.90
3816;DHT22;1923;48.154;11.536;2022-10-16T16:51:28;21.50;99.90
3816;DHT22;1923;48.154;11.536;2022-10-16T16:53:56;21.50;99.90
3816;DHT22;1923;48.154;11.536;2022-10-16T16:56:25;21.50;99.90
3816;DHT22;1923;48.154;11.536;2022-10-16T16:58:56;21.50;99.90
3816;DHT22;1923;48.154;11.536;2022-10-16T17:01:25;21.40;99.90
3816;DHT22;1923;48.154;11.536;2022-10-16T17:03:55;21.40;99.90
3816;DHT22;1923;48.154;11.536;2022-10-16T17:06:26;21.40;99.90
3816;DHT22;1923;48.154;11.536;2022-10-16T17:08:56;21.30;99.90
3816;DHT22;1923;48.154;11.536;2022-10-16T17:11:25;21.30;99.90
3816;DHT22;1923;48.154;11.536;2022-10-16T17:13:57;21.20;99.90
3816;DHT22;1923;48.154;11.536;2022-10-16T17:16:27;21.10;99.90
3816;DHT22;1923;48.154;11.536;2022-10-16T17:18:59;21.10;99.90
3816;DHT22;1923;48.154;11.536;2022-10-16T17:21:27;21.20;99.90
3816;DHT22;1923;48.154;11.536;2022-10-16T17:23:56;21.10;99.90
3816;DHT22;1923;48.154;11.536;2022-10-16T17:26:24;21.00;99.90
3816;DHT22;1923;48.154;11.536;2022-10-16T17:28:53;21.10;99.90
3816;DHT22;1923;48.154;11.536;2022-10-16T17:31:25;21.10;99.90
3816;DHT22;1923;48.154;11.536;2022-10-16T17:33:54;21.00;99.90
3816;DHT22;1923;48.154;11.536;2022-10-16T17:36:23;21.00;99.90
3816;DHT22;1923;48.154;11.536;2022-10-16T17:38:51;20.90;99.90
3816;DHT22;1923;48.154;11.536;2022-10-16T17:41:21;20.80;99.90
3816;DHT22;1923;48.154;11.536;2022-10-16T17:43:49;20.80;99.90
3816;DHT22;1923;48.154;11.536;2022-10-16T17:46:19;20.80;99.90
3816;DHT22;1923;48.154;11.536;2022-10-16T17:48:50;20.80;99.90
3816;DHT22;1923;48.154;11.536;2022-10-16T17:51:21;20.80;99.90
3816;DHT22;1923;48.154;11.536;2022-10-16T17:53:50;20.70;99.90
3816;DHT22;1923;48.154;11.536;2022-10-16T17:56:19;20.60;99.90
3816;DHT22;1923;48.154;11.536;2022-10-16T17:58:49;20.70;99.90
3816;DHT22;1923;48.154;11.536;2022-10-16T18:01:19;20.60;99.90
3816;DHT22;1923;48.154;11.536;2022-10-16T18:03:50;20.70;99.90
3816;DHT22;1923;48.154;11.536;2022-10-16T18:06:18;20.70;99.90
3816;DHT22;1923;48.154;11.536;2022-10-16T18:08:49;20.60;99.90
3816;DHT22;1923;48.154;11.536;2022-10-16T18:11:17;20.60;99.90
3816;DHT22;1923;48.154;11.536;2022-10-16T18:13:45;20.50;99.90
3816;DHT22;1923;48.154;11.536;2022-10-16T18:16:14;20.50;99.90
3816;DHT22;1923;48.154;11.536;2022-10-16T18:18:43;20.50;99.90
3816;DHT22;1923;48.154;11.536;2022-10-16T18:21:15;20.50;99.90
3816;DHT22;1923;48.154;11.536;2022-10-16T18:23:43;20.50;99.90
3816;DHT22;1923;48.154;11.536;2022-10-16T18:26:18;20.50;99.90
3816;DHT22;1923;48.154;11.536;2022-10-16T18:28:47;20.50;99.90
3816;DHT22;1923;48.154;11.536;2022-10-16T18:31:17;20.50;99.90
3816;DHT22;1923;48.154;11.536;2022-10-16T18:33:45;20.50;99.90
3816;DHT22;1923;48.154;11.536;2022-10-16T18:36:19;20.50;99.90
3816;DHT22;1923;48.154;11.536;2022-10-16T18:38:48;20.40;99.90
3816;DHT22;1923;48.154;11.536;2022-10-16T18:41:17;20.20;99.90
3816;DHT22;1923;48.154;11.536;2022-10-16T18:43:45;20.20;99.90
3816;DHT22;1923;48.154;11.536;2022-10-16T18:46:15;20.10;99.90
3816;DHT22;1923;48.154;11.536;2022-10-16T18:48:44;20.00;99.90
3816;DHT22;1923;48.154;11.536;2022-10-16T18:51:18;20.10;99.90
3816;DHT22;1923;48.154;11.536;2022-10-16T18:53:48;20.00;99.90
3816;DHT22;1923;48.154;11.536;2022-10-16T18:56:19;20.10;99.90
3816;DHT22;1923;48.154;11.536;2022-10-16T18:58:48;20.10;99.90
3816;DHT22;1923;48.154;11.536;2022-10-16T19:01:18;20.00;99.90
3816;DHT22;1923;48.154;11.536;2022-10-16T19:03:47;20.00;99.90
3816;DHT22;1923;48.154;11.536;2022-10-16T19:06:17;19.90;99.90
3816;DHT22;1923;48.154;11.536;2022-10-16T19:08:45;19.80;99.90
3816;DHT22;1923;48.154;11.536;2022-10-16T19:11:15;19.80;99.90
3816;DHT22;1923;48.154;11.536;2022-10-16T19:13:44;19.70;99.90
3816;DHT22;1923;48.154;11.536;2022-10-16T19:16:15;19.80;99.90
3816;DHT22;1923;48.154;11.536;2022-10-16T19:18:47;19.70;99.90
3816;DHT22;1923;48.154;11.536;2022-10-16T19:21:17;19.70;99.90
3816;DHT22;1923;48.154;11.536;2022-10-16T19:23:48;19.60;99.90
3816;DHT22;1923;48.154;11.536;2022-10-16T19:26:18;19.70;99.90
3816;DHT22;1923;48.154;11.536;2022-10-16T19:28:46;19.70;99.90
3816;DHT22;1923;48.154;11.536;2022-10-16T19:31:15;19.60;99.90
3816;DHT22;1923;48.154;11.536;2022-10-16T19:33:44;19.60;99.90
3816;DHT22;1923;48.154;11.536;2022-10-16T19:36:14;19.50;99.90
3816;DHT22;1923;48.154;11.536;2022-10-16T19:38:45;19.40;99.90
3816;DHT22;1923;48.154;11.536;2022-10-16T19:41:14;19.40;99.90
3816;DHT22;1923;48.154;11.536;2022-10-16T19:43:43;19.40;99.90
3816;DHT22;1923;48.154;11.536;2022-10-16T19:46:12;19.40;99.90
3816;DHT22;1923;48.154;11.536;2022-10-16T19:48:41;19.40;99.90
3816;DHT22;1923;48.154;11.536;2022-10-16T19:51:10;19.30;99.90
3816;DHT22;1923;48.154;11.536;2022-10-16T19:53:38;19.30;99.90
3816;DHT22;1923;48.154;11.536;2022-10-16T19:56:12;19.20;99.90
3816;DHT22;1923;48.154;11.536;2022-10-16T19:58:42;19.10;99.90
3816;DHT22;1923;48.154;11.536;2022-10-16T20:01:10;19.10;99.90
3816;DHT22;1923;48.154;11.536;2022-10-16T20:03:38;19.10;99.90
3816;DHT22;1923;48.154;11.536;2022-10-16T20:06:07;19.10;99.90
3816;DHT22;1923;48.154;11.536;2022-10-16T20:08:36;19.00;99.90
3816;DHT22;1923;48.154;11.536;2022-10-16T20:11:08;18.90;99.90
3816;DHT22;1923;48.154;11.536;2022-10-16T20:13:38;18.90;99.90
3816;DHT22;1923;48.154;11.536;2022-10-16T20:16:09;18.70;99.90
3816;DHT22;1923;48.154;11.536;2022-10-16T20:18:38;18.70;99.90
3816;DHT22;1923;48.154;11.536;2022-10-16T20:21:11;18.70;99.90
3816;DHT22;1923;48.154;11.536;2022-10-16T20:23:39;18.80;99.90
3816;DHT22;1923;48.154;11.536;2022-10-16T20:26:08;18.70;99.90
3816;DHT22;1923;48.154;11.536;2022-10-16T20:28:40;18.70;99.90
3816;DHT22;1923;48.154;11.536;2022-10-16T20:31:10;18.60;99.90
3816;DHT22;1923;48.154;11.536;2022-10-16T20:33:38;18.70;99.90
3816;DHT22;1923;48.154;11.536;2022-10-16T20:36:10;18.70;99.90
3816;DHT22;1923;48.154;11.536;2022-10-16T20:38:38;18.70;99.90
3816;DHT22;1923;48.154;11.536;2022-10-16T20:41:07;18.70;99.90
3816;DHT22;1923;48.154;11.536;2022-10-16T20:43:40;18.60;99.90
3816;DHT22;1923;48.154;11.536;2022-10-16T20:46:15;18.60;99.90
3816;DHT22;1923;48.154;11.536;2022-10-16T20:48:44;18.60;99.90
3816;DHT22;1923;48.154;11.536;2022-10-16T20:51:15;18.50;99.90
3816;DHT22;1923;48.154;11.536;2022-10-16T20:53:44;18.40;99.90
3816;DHT22;1923;48.154;11.536;2022-10-16T20:56:13;18.40;99.90
3816;DHT22;1923;48.154;11.536;2022-10-16T20:58:44;18.40;99.90
3816;DHT22;1923;48.154;11.536;2022-10-16T21:01:14;18.30;99.90
3816;DHT22;1923;48.154;11.536;2022-10-16T21:03:43;18.30;99.90
3816;DHT22;1923;48.154;11.536;2022-10-16T21:06:11;18.20;99.90
3816;DHT22;1923;48.154;11.536;2022-10-16T21:08:42;18.20;99.90
3816;DHT22;1923;48.154;11.536;2022-10-16T21:11:11;18.20;99.90
3816;DHT22;1923;48.154;11.536;2022-10-16T21:13:40;18.10;99.90
3816;DHT22;1923;48.154;11.536;2022-10-16T21:16:10;18.10;99.90
3816;DHT22;1923;48.154;11.536;2022-10-16T21:18:39;18.00;99.90
3816;DHT22;1923;48.154;11.536;2022-10-16T21:21:18;18.10;99.90
3816;DHT22;1923;48.154;11.536;2022-10-16T21:23:47;18.10;99.90
3816;DHT22;1923;48.154;11.536;2022-10-16T21:26:15;18.10;99.90
3816;DHT22;1923;48.154;11.536;2022-10-16T21:28:44;18.20;99.90
3816;DHT22;1923;48.154;11.536;2022-10-16T21:31:16;18.10;99.90
3816;DHT22;1923;48.154;11.536;2022-10-16T21:33:46;18.00;99.90
3816;DHT22;1923;48.154;11.536;2022-10-16T21:36:16;18.00;99.90
3816;DHT22;1923;48.154;11.536;2022-10-16T21:38:44;18.00;99.90
3816;DHT22;1923;48.154;11.536;2022-10-16T21:41:21;17.90;99.90
3816;DHT22;1923;48.154;11.536;2022-10-16T21:43:49;18.00;99.90
3816;DHT22;1923;48.154;11.536;2022-10-16T21:46:20;18.10;99.90
3816;DHT22;1923;48.154;11.536;2022-10-16T21:48:51;18.00;99.90
3816;DHT22;1923;48.154;11.536;2022-10-16T21:51:19;18.00;99.90
3816;DHT22;1923;48.154;11.536;2022-10-16T21:53:47;17.90;99.90
3816;DHT22;1923;48.154;11.536;2022-10-16T21:56:16;17.90;99.90
3816;DHT22;1923;48.154;11.536;2022-10-16T21:58:45;17.90;99.90
3816;DHT22;1923;48.154;11.536;2022-10-16T22:01:15;17.90;99.90
3816;DHT22;1923;48.154;11.536;2022-10-16T22:03:45;17.80;99.90
3816;DHT22;1923;48.154;11.536;2022-10-16T22:06:15;17.80;99.90
3816;DHT22;1923;48.154;11.536;2022-10-16T22:08:45;17.70;99.90
3816;DHT22;1923;48.154;11.536;2022-10-16T22:11:16;17.70;99.90
3816;DHT22;1923;48.154;11.536;2022-10-16T22:13:48;17.70;99.90
3816;DHT22;1923;48.154;11.536;2022-10-16T22:16:24;17.60;99.90
3816;DHT22;1923;48.154;11.536;2022-10-16T22:18:54;17.60;99.90
3816;DHT22;1923;48.154;11.536;2022-10-16T22:21:22;17.50;99.90
3816;DHT22;1923;48.154;11.536;2022-10-16T22:23:50;17.50;99.90
3816;DHT22;1923;48.154;11.536;2022-10-16T22:26:18;17.40;99.90
3816;DHT22;1923;48.154;11.536;2022-10-16T22:28:46;17.40;99.90
